createdAt,value
2023-03-02T00:00:32.130Z,0
2023-03-02T00:01:47.462Z,0
2023-03-02T00:03:03.649Z,0
2023-03-02T00:04:19.706Z,0
2023-03-02T00:05:36.014Z,0
2023-03-02T00:06:52.205Z,0
2023-03-02T00:08:08.398Z,0
2023-03-02T00:09:24.578Z,0
2023-03-02T00:10:40.786Z,0
2023-03-02T00:11:56.973Z,0
2023-03-02T00:13:13.042Z,0
2023-03-02T00:14:29.338Z,0
2023-03-02T00:15:45.418Z,0
2023-03-02T00:17:01.725Z,0
2023-03-02T00:18:16.934Z,0
2023-03-02T00:19:32.998Z,0
2023-03-02T00:20:49.176Z,0
2023-03-02T00:22:05.494Z,0
2023-03-02T00:23:21.678Z,0
2023-03-02T00:24:37.870Z,0
2023-03-02T00:25:54.060Z,0
2023-03-02T00:27:10.248Z,0
2023-03-02T00:28:26.437Z,0
2023-03-02T00:29:42.504Z,0
2023-03-02T00:30:58.695Z,0
2023-03-02T00:32:15.001Z,0
2023-03-02T00:33:31.196Z,0
2023-03-02T00:34:46.407Z,0
2023-03-02T00:36:02.589Z,0
2023-03-02T00:37:18.777Z,0
2023-03-02T00:38:34.967Z,0
2023-03-02T00:39:51.146Z,0
2023-03-02T00:41:07.347Z,0
2023-03-02T00:42:23.528Z,0
2023-03-02T00:43:39.714Z,0
2023-03-02T00:44:55.907Z,0
2023-03-02T00:46:12.097Z,0
2023-03-02T00:47:28.295Z,0
2023-03-02T00:48:44.481Z,0
2023-03-02T00:50:00.659Z,0
2023-03-02T00:51:15.735Z,0
2023-03-02T00:52:31.928Z,0
2023-03-02T00:53:48.128Z,0
2023-03-02T00:55:04.431Z,0
2023-03-02T00:56:20.623Z,0
2023-03-02T00:57:36.819Z,0
2023-03-02T00:58:52.882Z,0
2023-03-02T01:00:09.199Z,0
2023-03-02T01:01:25.264Z,0
2023-03-02T01:02:41.583Z,0
2023-03-02T01:03:57.774Z,0
2023-03-02T01:05:13.953Z,0
2023-03-02T01:06:30.002Z,0
2023-03-02T01:07:45.346Z,0
2023-03-02T01:09:01.535Z,0
2023-03-02T01:10:17.719Z,0
2023-03-02T01:11:33.922Z,0
2023-03-02T01:12:50.111Z,0
2023-03-02T01:14:06.284Z,0
2023-03-02T01:15:22.490Z,0
2023-03-02T01:16:38.679Z,0
2023-03-02T01:17:54.851Z,0
2023-03-02T01:19:11.058Z,0
2023-03-02T01:20:27.095Z,0
2023-03-02T01:21:43.419Z,0
2023-03-02T01:22:59.477Z,0
2023-03-02T01:24:14.820Z,0
2023-03-02T01:25:30.866Z,0
2023-03-02T01:26:47.066Z,0
2023-03-02T01:28:03.381Z,0
2023-03-02T01:29:19.584Z,0
2023-03-02T01:30:35.762Z,0
2023-03-02T01:31:51.827Z,0
2023-03-02T01:33:08.155Z,0
2023-03-02T01:34:24.340Z,0
2023-03-02T01:35:40.534Z,0
2023-03-02T01:36:56.713Z,0
2023-03-02T01:38:12.893Z,0
2023-03-02T01:39:28.949Z,0
2023-03-02T01:40:44.300Z,0
2023-03-02T01:42:00.338Z,0
2023-03-02T01:43:16.683Z,0
2023-03-02T01:44:32.721Z,0
2023-03-02T01:45:48.904Z,0
2023-03-02T01:47:05.091Z,0
2023-03-02T01:48:21.298Z,0
2023-03-02T01:49:37.613Z,0
2023-03-02T01:50:53.817Z,0
2023-03-02T01:52:09.851Z,0
2023-03-02T01:53:26.196Z,0
2023-03-02T01:54:42.384Z,0
2023-03-02T01:55:58.415Z,0
2023-03-02T01:57:13.634Z,0
2023-03-02T01:58:29.822Z,0
2023-03-02T01:59:46.152Z,0
2023-03-02T02:01:02.342Z,0
2023-03-02T02:02:18.526Z,0
2023-03-02T02:03:34.000Z,0
2023-03-02T02:04:50.899Z,0
2023-03-02T02:06:07.091Z,0
2023-03-02T02:07:23.137Z,0
2023-03-02T02:08:39.477Z,0
2023-03-02T02:09:55.677Z,0
2023-03-02T02:11:11.862Z,0
2023-03-02T02:12:27.897Z,0
2023-03-02T02:13:43.253Z,0
2023-03-02T02:14:59.440Z,0
2023-03-02T02:16:15.623Z,0
2023-03-02T02:17:31.668Z,0
2023-03-02T02:18:48.014Z,0
2023-03-02T02:20:04.203Z,0
2023-03-02T02:21:20.376Z,0
2023-03-02T02:22:36.578Z,0
2023-03-02T02:23:52.608Z,0
2023-03-02T02:25:08.953Z,0
2023-03-02T02:26:25.143Z,0
2023-03-02T02:27:41.332Z,0
2023-03-02T02:28:57.511Z,0
2023-03-02T02:30:12.579Z,0
2023-03-02T02:31:28.762Z,0
2023-03-02T02:32:44.945Z,0
2023-03-02T02:34:01.301Z,0
2023-03-02T02:35:17.483Z,0
2023-03-02T02:36:33.665Z,0
2023-03-02T02:37:49.705Z,0
2023-03-02T02:39:06.067Z,0
2023-03-02T02:40:22.096Z,0
2023-03-02T02:41:38.439Z,0
2023-03-02T02:42:54.623Z,0
2023-03-02T02:44:10.803Z,0
2023-03-02T02:45:27.002Z,0
2023-03-02T02:46:42.205Z,0
2023-03-02T02:47:58.384Z,0
2023-03-02T02:49:14.578Z,0
2023-03-02T02:50:30.770Z,0
2023-03-02T02:51:46.958Z,0
2023-03-02T02:53:03.149Z,0
2023-03-02T02:54:19.349Z,0
2023-03-02T02:55:35.520Z,0
2023-03-02T02:56:51.570Z,0
2023-03-02T02:58:07.906Z,0
2023-03-02T02:59:23.930Z,0
2023-03-02T03:00:40.293Z,0
2023-03-02T03:01:56.312Z,0
2023-03-02T03:03:11.523Z,0
2023-03-02T03:04:27.865Z,0
2023-03-02T03:05:44.053Z,0
2023-03-02T03:07:00.257Z,0
2023-03-02T03:08:16.429Z,0
2023-03-02T03:09:32.628Z,0
2023-03-02T03:10:48.653Z,0
2023-03-02T03:12:05.007Z,0
2023-03-02T03:13:21.046Z,0
2023-03-02T03:14:36.250Z,0
2023-03-02T03:15:52.438Z,0
2023-03-02T03:17:08.784Z,0
2023-03-02T03:18:24.971Z,0
2023-03-02T03:19:41.171Z,0
2023-03-02T03:20:57.350Z,0
2023-03-02T03:22:13.542Z,0
2023-03-02T03:23:29.725Z,0
2023-03-02T03:24:45.760Z,0
2023-03-02T03:26:02.104Z,0
2023-03-02T03:27:18.303Z,0
2023-03-02T03:28:34.488Z,0
2023-03-02T03:29:50.679Z,0
2023-03-02T03:31:05.716Z,0
2023-03-02T03:32:22.065Z,0
2023-03-02T03:33:38.107Z,0
2023-03-02T03:34:54.459Z,0
2023-03-02T03:36:10.475Z,0
2023-03-02T03:37:26.838Z,0
2023-03-02T03:38:42.865Z,0
2023-03-02T03:39:59.040Z,0
2023-03-02T03:41:15.242Z,0
2023-03-02T03:42:31.584Z,0
2023-03-02T03:43:47.781Z,0
2023-03-02T03:45:03.972Z,0
2023-03-02T03:46:20.169Z,0
2023-03-02T03:47:35.371Z,0
2023-03-02T03:48:51.386Z,0
2023-03-02T03:50:07.739Z,0
2023-03-02T03:51:23.929Z,0
2023-03-02T03:52:40.114Z,0
2023-03-02T03:53:56.132Z,0
2023-03-02T03:55:12.504Z,0
2023-03-02T03:56:28.683Z,0
2023-03-02T03:57:44.884Z,0
2023-03-02T03:59:01.068Z,0
2023-03-02T04:00:17.254Z,0
2023-03-02T04:01:33.266Z,0
2023-03-02T04:02:49.623Z,0
2023-03-02T04:04:04.678Z,0
2023-03-02T04:05:20.866Z,0
2023-03-02T04:06:37.045Z,0
2023-03-02T04:07:53.406Z,0
2023-03-02T04:09:09.590Z,0
2023-03-02T04:10:25.791Z,0
2023-03-02T04:11:41.979Z,0
2023-03-02T04:12:58.168Z,0
2023-03-02T04:14:14.347Z,0
2023-03-02T04:15:30.547Z,0
2023-03-02T04:16:46.567Z,0
2023-03-02T04:18:02.742Z,0
2023-03-02T04:19:19.108Z,0
2023-03-02T04:20:34.313Z,0
2023-03-02T04:21:50.327Z,0
2023-03-02T04:23:06.696Z,0
2023-03-02T04:24:22.880Z,0
2023-03-02T04:25:39.074Z,0
2023-03-02T04:26:55.094Z,0
2023-03-02T04:28:11.440Z,0
2023-03-02T04:29:27.647Z,0
2023-03-02T04:30:43.654Z,0
2023-03-02T04:31:59.844Z,0
2023-03-02T04:33:16.028Z,0
2023-03-02T04:34:32.221Z,0
2023-03-02T04:35:48.574Z,0
2023-03-02T04:37:03.605Z,0
2023-03-02T04:38:19.982Z,0
2023-03-02T04:39:36.164Z,0
2023-03-02T04:40:52.348Z,0
2023-03-02T04:42:08.360Z,0
2023-03-02T04:43:24.743Z,0
2023-03-02T04:44:40.930Z,0
2023-03-02T04:45:57.122Z,0
2023-03-02T04:47:13.304Z,0
2023-03-02T04:48:29.481Z,0
2023-03-02T04:49:45.507Z,0
2023-03-02T04:51:01.868Z,0
2023-03-02T04:52:18.068Z,0
2023-03-02T04:53:33.256Z,0
2023-03-02T04:54:49.446Z,0
2023-03-02T04:56:05.464Z,0
2023-03-02T04:57:21.656Z,0
2023-03-02T04:58:38.031Z,0
2023-03-02T04:59:54.217Z,0
2023-03-02T05:01:10.409Z,0
2023-03-02T05:02:26.410Z,0
2023-03-02T05:03:42.774Z,0
2023-03-02T05:04:58.790Z,0
2023-03-02T05:06:15.149Z,0
2023-03-02T05:07:31.346Z,0
2023-03-02T05:08:47.348Z,0
2023-03-02T05:10:03.853Z,0
2023-03-02T05:11:20.037Z,0
2023-03-02T05:12:36.031Z,0
2023-03-02T05:13:52.420Z,0
2023-03-02T05:15:08.594Z,0
2023-03-02T05:16:24.786Z,0
2023-03-02T05:17:40.975Z,0
2023-03-02T05:18:57.178Z,0
2023-03-02T05:20:13.355Z,0
2023-03-02T05:21:29.368Z,0
2023-03-02T05:22:45.736Z,0
2023-03-02T05:24:01.915Z,0
2023-03-02T05:25:18.113Z,0
2023-03-02T05:26:33.316Z,0
2023-03-02T05:27:49.317Z,4
2023-03-02T05:29:05.693Z,0
2023-03-02T05:30:21.888Z,4
2023-03-02T05:31:38.070Z,4
2023-03-02T05:32:54.085Z,4
2023-03-02T05:34:10.462Z,8
2023-03-02T05:35:26.447Z,8
2023-03-02T05:36:42.840Z,8
2023-03-02T05:37:59.014Z,12
2023-03-02T05:39:15.209Z,12
2023-03-02T05:40:31.396Z,16
2023-03-02T05:41:47.592Z,20
2023-03-02T05:43:02.604Z,20
2023-03-02T05:44:18.976Z,28
2023-03-02T05:45:35.166Z,28
2023-03-02T05:46:51.368Z,36
2023-03-02T05:48:07.369Z,40
2023-03-02T05:49:23.734Z,48
2023-03-02T05:50:39.736Z,52
2023-03-02T05:51:56.109Z,60
2023-03-02T05:53:12.309Z,68
2023-03-02T05:54:28.497Z,76
2023-03-02T05:55:44.690Z,84
2023-03-02T05:57:00.878Z,88
2023-03-02T05:58:17.063Z,100
2023-03-02T05:59:32.080Z,108
2023-03-02T06:00:48.463Z,116
2023-03-02T06:02:04.648Z,128
2023-03-02T06:03:20.830Z,136
2023-03-02T06:04:37.034Z,148
2023-03-02T06:05:53.209Z,156
2023-03-02T06:07:09.399Z,168
2023-03-02T06:08:25.594Z,176
2023-03-02T06:09:41.788Z,188
2023-03-02T06:10:57.970Z,200
2023-03-02T06:12:14.171Z,212
2023-03-02T06:13:30.164Z,220
2023-03-02T06:14:46.531Z,232
2023-03-02T06:16:01.744Z,240
2023-03-02T06:17:17.929Z,252
2023-03-02T06:18:34.133Z,268
2023-03-02T06:19:50.317Z,276
2023-03-02T06:21:06.305Z,288
2023-03-02T06:22:22.685Z,300
2023-03-02T06:23:38.874Z,312
2023-03-02T06:24:54.879Z,324
2023-03-02T06:26:11.267Z,336
2023-03-02T06:27:27.256Z,348
2023-03-02T06:28:43.438Z,356
2023-03-02T06:29:59.831Z,372
2023-03-02T06:31:15.823Z,384
2023-03-02T06:32:31.227Z,392
2023-03-02T06:33:47.408Z,404
2023-03-02T06:35:03.596Z,420
2023-03-02T06:36:19.788Z,428
2023-03-02T06:37:35.981Z,440
2023-03-02T06:38:52.176Z,452
2023-03-02T06:40:08.352Z,464
2023-03-02T06:41:24.342Z,480
2023-03-02T06:42:40.730Z,492
2023-03-02T06:43:56.915Z,500
2023-03-02T06:45:13.122Z,516
2023-03-02T06:46:29.309Z,528
2023-03-02T06:47:45.280Z,540
2023-03-02T06:49:00.702Z,552
2023-03-02T06:50:16.680Z,564
2023-03-02T06:51:33.068Z,580
2023-03-02T06:52:49.259Z,592
2023-03-02T06:54:05.465Z,608
2023-03-02T06:55:21.652Z,616
2023-03-02T06:56:37.824Z,632
2023-03-02T06:57:53.805Z,644
2023-03-02T06:59:10.014Z,656
2023-03-02T07:00:26.408Z,668
2023-03-02T07:01:42.598Z,688
2023-03-02T07:02:58.577Z,696
2023-03-02T07:04:14.974Z,712
2023-03-02T07:05:29.971Z,728
2023-03-02T07:06:46.355Z,748
2023-03-02T07:08:02.556Z,756
2023-03-02T07:09:18.743Z,772
2023-03-02T07:10:34.922Z,784
2023-03-02T07:11:51.119Z,796
2023-03-02T07:13:07.302Z,804
2023-03-02T07:14:23.493Z,820
2023-03-02T07:15:39.481Z,836
2023-03-02T07:16:55.879Z,848
2023-03-02T07:18:12.056Z,860
2023-03-02T07:19:28.253Z,872
2023-03-02T07:20:44.434Z,884
2023-03-02T07:21:59.657Z,900
2023-03-02T07:23:15.636Z,912
2023-03-02T07:24:32.037Z,908
2023-03-02T07:25:48.214Z,948
2023-03-02T07:27:04.402Z,1008
2023-03-02T07:28:20.390Z,1004
2023-03-02T07:29:35.589Z,1128
2023-03-02T07:30:51.998Z,1284
2023-03-02T07:32:08.183Z,1220
2023-03-02T07:33:24.366Z,1196
2023-03-02T07:34:40.560Z,1324
2023-03-02T07:35:56.545Z,1208
2023-03-02T07:37:12.718Z,1156
2023-03-02T07:38:29.122Z,1332
2023-03-02T07:39:45.320Z,1264
2023-03-02T07:41:01.286Z,1300
2023-03-02T07:42:17.479Z,1468
2023-03-02T07:43:33.888Z,1568
2023-03-02T07:44:49.852Z,1524
2023-03-02T07:46:05.285Z,1536
2023-03-02T07:47:21.467Z,1540
2023-03-02T07:48:37.433Z,1460
2023-03-02T07:49:53.844Z,1516
2023-03-02T07:51:10.039Z,1560
2023-03-02T07:52:26.014Z,1624
2023-03-02T07:53:42.406Z,1652
2023-03-02T07:54:58.609Z,1680
2023-03-02T07:56:14.790Z,1640
2023-03-02T07:57:30.979Z,1660
2023-03-02T07:58:47.174Z,1576
2023-03-02T08:00:03.135Z,1688
2023-03-02T08:01:19.549Z,1584
2023-03-02T08:02:34.746Z,1640
2023-03-02T08:03:50.970Z,1752
2023-03-02T08:05:07.141Z,1940
2023-03-02T08:06:23.332Z,1964
2023-03-02T08:07:39.296Z,2036
2023-03-02T08:08:55.694Z,1824
2023-03-02T08:10:11.896Z,1848
2023-03-02T08:11:28.072Z,1628
2023-03-02T08:12:44.277Z,1704
2023-03-02T08:14:00.452Z,1884
2023-03-02T08:15:16.423Z,1956
2023-03-02T08:16:32.833Z,1956
2023-03-02T08:17:49.035Z,2060
2023-03-02T08:19:04.234Z,2132
2023-03-02T08:20:20.428Z,2052
2023-03-02T08:21:36.600Z,1932
2023-03-02T08:22:52.799Z,1932
2023-03-02T08:24:08.982Z,2148
2023-03-02T08:25:25.184Z,2164
2023-03-02T08:26:41.376Z,2100
2023-03-02T08:27:57.339Z,2332
2023-03-02T08:29:13.737Z,2196
2023-03-02T08:30:29.710Z,2248
2023-03-02T08:31:45.895Z,2236
2023-03-02T08:33:02.314Z,1976
2023-03-02T08:34:18.498Z,1920
2023-03-02T08:35:33.481Z,2076
2023-03-02T08:36:49.902Z,2144
2023-03-02T08:38:06.080Z,2300
2023-03-02T08:39:22.281Z,2112
2023-03-02T08:40:38.461Z,2092
2023-03-02T08:41:54.652Z,2024
2023-03-02T08:43:10.844Z,2016
2023-03-02T08:44:26.800Z,2076
2023-03-02T08:45:43.216Z,2240
2023-03-02T08:46:59.405Z,2336
2023-03-02T08:48:15.601Z,2452
2023-03-02T08:49:31.779Z,2540
2023-03-02T08:50:47.984Z,2616
2023-03-02T08:52:03.176Z,2592
2023-03-02T08:53:19.151Z,2724
2023-03-02T08:54:35.560Z,2448
2023-03-02T08:55:51.520Z,2564
2023-03-02T08:57:07.945Z,2856
2023-03-02T08:58:24.130Z,3008
2023-03-02T08:59:40.309Z,2916
2023-03-02T09:00:56.503Z,2888
2023-03-02T09:02:12.692Z,2788
2023-03-02T09:03:28.652Z,2644
2023-03-02T09:04:45.070Z,2404
2023-03-02T09:06:01.270Z,2312
2023-03-02T09:07:17.442Z,2476
2023-03-02T09:08:32.413Z,2768
2023-03-02T09:09:48.608Z,2896
2023-03-02T09:11:05.020Z,2680
2023-03-02T09:12:20.986Z,2860
2023-03-02T09:13:37.405Z,2900
2023-03-02T09:14:53.591Z,2868
2023-03-02T09:16:09.533Z,3296
2023-03-02T09:17:25.971Z,3032
2023-03-02T09:18:42.151Z,2684
2023-03-02T09:19:58.351Z,2724
2023-03-02T09:21:14.533Z,2640
2023-03-02T09:22:30.477Z,2788
2023-03-02T09:23:46.907Z,2936
2023-03-02T09:25:02.109Z,3244
2023-03-02T09:26:18.296Z,3252
2023-03-02T09:27:34.486Z,3000
2023-03-02T09:28:50.431Z,2808
2023-03-02T09:30:06.613Z,2768
2023-03-02T09:31:22.814Z,2640
2023-03-02T09:32:39.241Z,2588
2023-03-02T09:33:55.419Z,2588
2023-03-02T09:35:11.374Z,2644
2023-03-02T09:36:27.549Z,2576
2023-03-02T09:37:43.987Z,2732
2023-03-02T09:39:00.172Z,2724
2023-03-02T09:40:16.367Z,2680
2023-03-02T09:41:31.568Z,2836
2023-03-02T09:42:47.741Z,2712
2023-03-02T09:44:03.932Z,2632
2023-03-02T09:45:20.129Z,2676
2023-03-02T09:46:36.305Z,2788
2023-03-02T09:47:52.510Z,2860
2023-03-02T09:49:08.678Z,3044
2023-03-02T09:50:24.868Z,3176
2023-03-02T09:51:41.072Z,3276
2023-03-02T09:52:57.243Z,3408
2023-03-02T09:54:13.192Z,3304
2023-03-02T09:55:29.630Z,2980
2023-03-02T09:56:45.567Z,2976
2023-03-02T09:58:01.014Z,2812
2023-03-02T09:59:17.206Z,2752
2023-03-02T10:00:33.398Z,2664
2023-03-02T10:01:49.336Z,2648
2023-03-02T10:03:05.773Z,2728
2023-03-02T10:04:21.955Z,2688
2023-03-02T10:05:38.143Z,2776
2023-03-02T10:06:54.325Z,3028
2023-03-02T10:08:10.267Z,2992
2023-03-02T10:09:26.465Z,3068
2023-03-02T10:10:42.887Z,3176
2023-03-02T10:11:58.827Z,3104
2023-03-02T10:13:15.263Z,3024
2023-03-02T10:14:30.479Z,3380
2023-03-02T10:15:46.666Z,3652
2023-03-02T10:17:02.595Z,3504
2023-03-02T10:18:19.041Z,3524
2023-03-02T10:19:35.221Z,3684
2023-03-02T10:20:51.165Z,3840
2023-03-02T10:22:07.346Z,4000
2023-03-02T10:23:23.524Z,3664
2023-03-02T10:24:39.980Z,3880
2023-03-02T10:25:55.912Z,3792
2023-03-02T10:27:12.100Z,3712
2023-03-02T10:28:28.534Z,3876
2023-03-02T10:29:44.730Z,4572
2023-03-02T10:30:59.925Z,4420
2023-03-02T10:32:16.118Z,4064
2023-03-02T10:33:32.304Z,4316
2023-03-02T10:34:48.484Z,4592
2023-03-02T10:36:04.685Z,4452
2023-03-02T10:37:20.867Z,4656
2023-03-02T10:38:36.804Z,4880
2023-03-02T10:39:52.986Z,4520
2023-03-02T10:41:09.428Z,4912
2023-03-02T10:42:25.614Z,4900
2023-03-02T10:43:41.805Z,4452
2023-03-02T10:44:57.981Z,4924
2023-03-02T10:46:14.167Z,5768
2023-03-02T10:47:29.118Z,5320
2023-03-02T10:48:45.319Z,5836
2023-03-02T10:50:01.761Z,5912
2023-03-02T10:51:17.693Z,6148
2023-03-02T10:52:34.133Z,6584
2023-03-02T10:53:50.064Z,5584
2023-03-02T10:55:06.500Z,4968
2023-03-02T10:56:22.696Z,4496
2023-03-02T10:57:38.888Z,4944
2023-03-02T10:58:55.058Z,5024
2023-03-02T11:00:11.260Z,5264
2023-03-02T11:01:27.435Z,5340
2023-03-02T11:02:43.371Z,5348
2023-03-02T11:03:58.832Z,5032
2023-03-02T11:05:15.022Z,4992
2023-03-02T11:06:31.212Z,4356
2023-03-02T11:07:47.129Z,3852
2023-03-02T11:09:03.590Z,3676
2023-03-02T11:10:19.503Z,4056
2023-03-02T11:11:35.962Z,4476
2023-03-02T11:12:52.157Z,4580
2023-03-02T11:14:08.324Z,4608
2023-03-02T11:15:24.256Z,5084
2023-03-02T11:16:40.715Z,5024
2023-03-02T11:17:56.894Z,4612
2023-03-02T11:19:13.087Z,5292
2023-03-02T11:20:28.297Z,5780
2023-03-02T11:21:44.478Z,6720
2023-03-02T11:23:00.658Z,6376
2023-03-02T11:24:16.580Z,7224
2023-03-02T11:25:32.766Z,7164
2023-03-02T11:26:49.221Z,7056
2023-03-02T11:28:05.403Z,7100
2023-03-02T11:29:21.325Z,6696
2023-03-02T11:30:37.780Z,7364
2023-03-02T11:31:53.980Z,7136
2023-03-02T11:33:10.156Z,7320
2023-03-02T11:34:26.348Z,7340
2023-03-02T11:35:42.543Z,7064
2023-03-02T11:36:57.733Z,6896
2023-03-02T11:38:13.932Z,6824
2023-03-02T11:39:30.114Z,6700
2023-03-02T11:40:46.033Z,7156
2023-03-02T11:42:02.225Z,8520
2023-03-02T11:43:18.425Z,8580
2023-03-02T11:44:33.880Z,7328
2023-03-02T11:45:50.075Z,6004
2023-03-02T11:47:06.266Z,7044
2023-03-02T11:48:22.176Z,10264
2023-03-02T11:49:38.633Z,9536
2023-03-02T11:50:54.833Z,10188
2023-03-02T11:52:11.013Z,10444
2023-03-02T11:53:27.206Z,10856
2023-03-02T11:54:43.121Z,9532
2023-03-02T11:55:59.302Z,10156
2023-03-02T11:57:15.774Z,9296
2023-03-02T11:58:31.951Z,9680
2023-03-02T11:59:48.145Z,10516
2023-03-02T12:01:03.340Z,9644
2023-03-02T12:02:19.531Z,11028
2023-03-02T12:03:35.712Z,19084
2023-03-02T12:04:51.913Z,11024
2023-03-02T12:06:08.085Z,10848
2023-03-02T12:07:24.003Z,29056
2023-03-02T12:08:40.471Z,25312
2023-03-02T12:09:56.648Z,22304
2023-03-02T12:11:12.000Z,19904
2023-03-02T12:12:29.019Z,15804
2023-03-02T12:13:45.217Z,53376
2023-03-02T12:15:01.119Z,56192
2023-03-02T12:16:17.324Z,56128
2023-03-02T12:17:32.793Z,48064
2023-03-02T12:18:48.975Z,55456
2023-03-02T12:20:04.897Z,55904
2023-03-02T12:21:21.078Z,58624
2023-03-02T12:22:37.546Z,58976
2023-03-02T12:23:53.449Z,57600
2023-03-02T12:25:09.919Z,54976
2023-03-02T12:26:25.832Z,56288
2023-03-02T12:27:42.020Z,57152
2023-03-02T12:28:58.473Z,55968
2023-03-02T12:30:14.669Z,57888
2023-03-02T12:31:30.850Z,57600
2023-03-02T12:32:46.760Z,55872
2023-03-02T12:34:02.241Z,56384
2023-03-02T12:35:18.426Z,54144
2023-03-02T12:36:34.346Z,54528
2023-03-02T12:37:50.812Z,53344
2023-03-02T12:39:06.706Z,53152
2023-03-02T12:40:23.178Z,48544
2023-03-02T12:41:39.362Z,45376
2023-03-02T12:42:55.271Z,49216
2023-03-02T12:44:11.740Z,51360
2023-03-02T12:45:27.641Z,54496
2023-03-02T12:46:44.125Z,53888
2023-03-02T12:48:00.304Z,53952
2023-03-02T12:49:16.210Z,57824
2023-03-02T12:50:31.696Z,55776
2023-03-02T12:51:47.883Z,53792
2023-03-02T12:53:04.065Z,53248
2023-03-02T12:54:19.985Z,54752
2023-03-02T12:55:36.449Z,53408
2023-03-02T12:56:52.358Z,54592
2023-03-02T12:58:08.532Z,58080
2023-03-02T12:59:25.012Z,58816
2023-03-02T13:00:41.202Z,58144
2023-03-02T13:01:57.094Z,57184
2023-03-02T13:03:13.569Z,56640
2023-03-02T13:04:29.484Z,56000
2023-03-02T13:05:45.953Z,53024
2023-03-02T13:07:01.152Z,44352
2023-03-02T13:08:17.347Z,20896
2023-03-02T13:09:33.230Z,6304
2023-03-02T13:10:49.416Z,5756
2023-03-02T13:12:05.607Z,5472
2023-03-02T13:13:21.796Z,5360
2023-03-02T13:14:38.277Z,5076
2023-03-02T13:15:54.452Z,5208
2023-03-02T13:17:10.654Z,6388
2023-03-02T13:18:26.549Z,8084
2023-03-02T13:19:42.736Z,6424
2023-03-02T13:20:59.217Z,6084
2023-03-02T13:22:15.396Z,5324
2023-03-02T13:23:30.601Z,5376
2023-03-02T13:24:46.792Z,5904
2023-03-02T13:26:02.694Z,6448
2023-03-02T13:27:18.873Z,7152
2023-03-02T13:28:35.340Z,6872
2023-03-02T13:29:51.543Z,6140
2023-03-02T13:31:07.716Z,6452
2023-03-02T13:32:23.629Z,6000
2023-03-02T13:33:40.101Z,5880
2023-03-02T13:34:56.003Z,5280
2023-03-02T13:36:12.172Z,5284
2023-03-02T13:37:28.661Z,5216
2023-03-02T13:38:44.559Z,5936
2023-03-02T13:40:00.043Z,5296
2023-03-02T13:41:16.244Z,4824
2023-03-02T13:42:32.141Z,5412
2023-03-02T13:43:48.620Z,4564
2023-03-02T13:45:04.799Z,4464
2023-03-02T13:46:20.978Z,4744
2023-03-02T13:47:37.178Z,5048
2023-03-02T13:48:53.064Z,4724
2023-03-02T13:50:09.260Z,4760
2023-03-02T13:51:25.741Z,5152
2023-03-02T13:52:41.637Z,4776
2023-03-02T13:53:58.119Z,4756
2023-03-02T13:55:14.301Z,4600
2023-03-02T13:56:29.211Z,4116
2023-03-02T13:57:45.393Z,4024
2023-03-02T13:59:01.586Z,4068
2023-03-02T14:00:18.063Z,4168
2023-03-02T14:01:34.253Z,4168
2023-03-02T14:02:50.426Z,3960
2023-03-02T14:04:06.629Z,3912
2023-03-02T14:05:22.513Z,4076
2023-03-02T14:06:39.003Z,3684
2023-03-02T14:07:55.192Z,3844
2023-03-02T14:09:11.064Z,4068
2023-03-02T14:10:27.564Z,4200
2023-03-02T14:11:43.741Z,4528
2023-03-02T14:12:58.646Z,3904
2023-03-02T14:14:14.833Z,3796
2023-03-02T14:15:31.317Z,3448
2023-03-02T14:16:47.218Z,3872
2023-03-02T14:18:03.707Z,3640
2023-03-02T14:19:19.892Z,4040
2023-03-02T14:20:36.068Z,4368
2023-03-02T14:21:51.971Z,4712
2023-03-02T14:23:08.457Z,4524
2023-03-02T14:24:24.337Z,4036
2023-03-02T14:25:40.523Z,4544
2023-03-02T14:26:56.707Z,3688
2023-03-02T14:28:13.191Z,3604
2023-03-02T14:29:29.509Z,3812
2023-03-02T14:30:44.706Z,4592
2023-03-02T14:32:00.896Z,5184
2023-03-02T14:33:17.079Z,4764
2023-03-02T14:34:33.276Z,4988
2023-03-02T14:35:49.455Z,5028
2023-03-02T14:37:05.639Z,4996
2023-03-02T14:38:21.839Z,3896
2023-03-02T14:39:37.711Z,3772
2023-03-02T14:40:53.900Z,3060
2023-03-02T14:42:10.396Z,3624
2023-03-02T14:43:26.278Z,3740
2023-03-02T14:44:42.777Z,3632
2023-03-02T14:45:58.955Z,3652
2023-03-02T14:47:14.165Z,4472
2023-03-02T14:48:30.362Z,3268
2023-03-02T14:49:46.241Z,2328
2023-03-02T14:51:02.410Z,2132
2023-03-02T14:52:18.610Z,1620
2023-03-02T14:53:34.783Z,1988
2023-03-02T14:54:51.292Z,2100
2023-03-02T14:56:07.467Z,1636
2023-03-02T14:57:23.665Z,1712
2023-03-02T14:58:39.847Z,1644
2023-03-02T14:59:56.040Z,1488
2023-03-02T15:01:11.924Z,1692
2023-03-02T15:02:28.412Z,1468
2023-03-02T15:03:43.615Z,1468
2023-03-02T15:04:59.493Z,1372
2023-03-02T15:06:15.688Z,1420
2023-03-02T15:07:32.185Z,1352
2023-03-02T15:08:48.373Z,1012
2023-03-02T15:10:04.555Z,1004
2023-03-02T15:11:20.751Z,1004
2023-03-02T15:12:36.928Z,964
2023-03-02T15:13:52.803Z,1100
2023-03-02T15:15:09.313Z,960
2023-03-02T15:16:25.481Z,912
2023-03-02T15:17:41.688Z,836
2023-03-02T15:18:57.553Z,824
2023-03-02T15:20:13.070Z,900
2023-03-02T15:21:29.245Z,848
2023-03-02T15:22:45.435Z,892
2023-03-02T15:24:01.630Z,1048
2023-03-02T15:25:17.495Z,960
2023-03-02T15:26:33.688Z,988
2023-03-02T15:27:50.194Z,1100
2023-03-02T15:29:06.072Z,1196
2023-03-02T15:30:22.259Z,1000
2023-03-02T15:31:38.752Z,1004
2023-03-02T15:32:54.942Z,1164
2023-03-02T15:34:11.137Z,1104
2023-03-02T15:35:27.310Z,1044
2023-03-02T15:36:42.457Z,896
2023-03-02T15:37:58.706Z,784
2023-03-02T15:39:14.888Z,756
2023-03-02T15:40:31.024Z,696
2023-03-02T15:41:47.276Z,712
2023-03-02T15:43:03.461Z,656
2023-03-02T15:44:19.647Z,560
2023-03-02T15:45:35.833Z,532
2023-03-02T15:46:52.020Z,524
2023-03-02T15:48:08.210Z,616
2023-03-02T15:49:24.344Z,752
2023-03-02T15:50:40.531Z,680
2023-03-02T15:51:56.709Z,632
2023-03-02T15:53:11.966Z,584
2023-03-02T15:54:28.169Z,608
2023-03-02T15:55:44.276Z,532
2023-03-02T15:57:00.540Z,516
2023-03-02T15:58:16.716Z,524
2023-03-02T15:59:31.867Z,492
2023-03-02T16:00:48.124Z,484
2023-03-02T16:02:04.317Z,460
2023-03-02T16:03:20.430Z,440
2023-03-02T16:04:36.676Z,404
2023-03-02T16:05:52.870Z,388
2023-03-02T16:07:08.990Z,348
2023-03-02T16:08:25.179Z,328
2023-03-02T16:09:41.427Z,284
2023-03-02T16:10:57.617Z,272
2023-03-02T16:12:13.814Z,292
2023-03-02T16:13:29.986Z,304
2023-03-02T16:14:46.176Z,284
2023-03-02T16:16:01.389Z,280
2023-03-02T16:17:17.581Z,268
2023-03-02T16:18:33.755Z,244
2023-03-02T16:19:49.950Z,232
2023-03-02T16:21:06.074Z,212
2023-03-02T16:22:22.000Z,184
2023-03-02T16:23:38.519Z,160
2023-03-02T16:24:54.697Z,140
2023-03-02T16:26:10.892Z,132
2023-03-02T16:27:27.071Z,124
2023-03-02T16:28:43.186Z,120
2023-03-02T16:29:59.378Z,108
2023-03-02T16:31:15.633Z,104
2023-03-02T16:32:30.843Z,100
2023-03-02T16:33:46.944Z,92
2023-03-02T16:35:03.217Z,84
2023-03-02T16:36:19.335Z,76
2023-03-02T16:37:35.522Z,64
2023-03-02T16:38:51.776Z,60
2023-03-02T16:40:07.963Z,56
2023-03-02T16:41:24.157Z,48
2023-03-02T16:42:40.278Z,40
2023-03-02T16:43:56.526Z,40
2023-03-02T16:45:12.641Z,32
2023-03-02T16:46:28.822Z,32
2023-03-02T16:47:45.093Z,24
2023-03-02T16:49:00.289Z,20
2023-03-02T16:50:16.475Z,16
2023-03-02T16:51:32.596Z,16
2023-03-02T16:52:48.769Z,16
2023-03-02T16:54:05.047Z,12
2023-03-02T16:55:21.227Z,8
2023-03-02T16:56:37.412Z,8
2023-03-02T16:57:53.528Z,8
2023-03-02T16:59:09.715Z,8
2023-03-02T17:00:25.910Z,4
2023-03-02T17:01:42.170Z,4
2023-03-02T17:02:58.346Z,4
2023-03-02T17:04:14.540Z,0
2023-03-02T17:05:29.747Z,4
2023-03-02T17:06:45.943Z,4
2023-03-02T17:08:02.130Z,0
2023-03-02T17:09:18.313Z,0
2023-03-02T17:10:34.499Z,0
2023-03-02T17:11:50.608Z,0
2023-03-02T17:13:06.788Z,0
2023-03-02T17:14:23.052Z,0
2023-03-02T17:15:39.173Z,0
2023-03-02T17:16:55.442Z,0
2023-03-02T17:18:11.631Z,0
2023-03-02T17:19:27.803Z,0
2023-03-02T17:20:44.008Z,0
2023-03-02T17:21:59.126Z,0
2023-03-02T17:23:15.393Z,0
2023-03-02T17:24:31.499Z,0
2023-03-02T17:25:47.755Z,0
2023-03-02T17:27:03.957Z,0
2023-03-02T17:28:20.133Z,0
2023-03-02T17:29:36.322Z,0
2023-03-02T17:30:52.439Z,0
2023-03-02T17:32:08.618Z,0
2023-03-02T17:33:24.888Z,0
2023-03-02T17:34:41.070Z,0
2023-03-02T17:35:57.255Z,0